Time;durP1;ratioP1;P1;durP2;ratioP2;P2;SDS_P1;SDS_P2;PMS_P1;PMS_P2;Temp;Humidity;BMP_temperature;BMP_pressure;BME280_temperature;BME280_humidity;BME280_pressure;Samples;Min_cycle;Max_cycle;Signal;HPM_P1;HPM_P2
2021/10/21 00:00:21;;;;;;;17.03;7.80;;;;;;;;;;364214;145;857345;-59
2021/10/21 00:01:23;;;;;;;11.49;6.81;;;;;;;;;;364690;145;857133;-58
2021/10/21 00:02:24;;;;;;;12.32;7.01;;;;;;;;;;366498;144;857370;-59
2021/10/21 00:03:26;;;;;;;14.90;6.98;;;;;;;;;;364081;144;857159;-59
2021/10/21 00:04:29;;;;;;;15.01;7.42;;;;;;;;;;362638;148;857357;-59
2021/10/21 00:05:30;;;;;;;14.89;7.53;;;;;;;;;;358977;147;865845;-59
2021/10/21 00:06:32;;;;;;;11.39;7.05;;;;;;;;;;365838;144;866526;-59
2021/10/21 00:07:34;;;;;;;12.82;7.51;;;;;;;;;;364327;145;858622;-59
2021/10/21 00:08:36;;;;;;;12.39;6.86;;;;;;;;;;364062;145;866774;-58
2021/10/21 00:09:37;;;;;;;10.81;7.15;;;;;;;;;;363922;144;865822;-58
2021/10/21 00:10:39;;;;;;;12.04;6.86;;;;;;;;;;364053;147;857221;-59
2021/10/21 00:11:41;;;;;;;12.49;7.37;;;;;;;;;;363981;145;864908;-58
2021/10/21 00:12:43;;;;;;;12.49;7.29;;;;;;;;;;364482;144;857157;-59
2021/10/21 00:13:44;;;;;;;15.67;6.97;;;;;;;;;;364685;145;857233;-59
2021/10/21 00:14:46;;;;;;;12.99;7.02;;;;;;;;;;364309;145;866693;-58
2021/10/21 00:15:47;;;;;;;13.74;6.56;;;;;;;;;;364093;144;858943;-59
2021/10/21 00:16:49;;;;;;;13.16;7.06;;;;;;;;;;364874;144;860209;-58
2021/10/21 00:17:51;;;;;;;14.89;7.28;;;;;;;;;;363954;145;865418;-59
2021/10/21 00:18:53;;;;;;;16.87;7.30;;;;;;;;;;363506;144;857869;-58
2021/10/21 00:19:55;;;;;;;11.86;7.05;;;;;;;;;;365561;144;857442;-59
2021/10/21 00:20:56;;;;;;;17.99;7.14;;;;;;;;;;363186;144;866810;-59
2021/10/21 00:21:58;;;;;;;11.88;6.94;;;;;;;;;;363825;146;857272;-58
2021/10/21 00:23:00;;;;;;;11.39;7.13;;;;;;;;;;364373;144;866166;-58
2021/10/21 00:24:02;;;;;;;13.58;6.74;;;;;;;;;;365434;144;866077;-59
2021/10/21 00:25:04;;;;;;;15.64;6.95;;;;;;;;;;362048;144;864853;-59
2021/10/21 00:26:09;;;;;;;12.85;7.07;;;;;;;;;;362245;144;866822;-59
2021/10/21 00:27:10;;;;;;;11.59;6.79;;;;;;;;;;364687;144;866712;-59
2021/10/21 00:28:14;;;;;;;12.72;7.04;;;;;;;;;;364425;144;857666;-59
2021/10/21 00:29:15;;;;;;;14.22;7.37;;;;;;;;;;361438;144;859636;-58
2021/10/21 00:30:17;;;;;;;10.52;6.96;;;;;;;;;;363739;144;857129;-58
2021/10/21 00:31:19;;;;;;;14.64;6.79;;;;;;;;;;364190;144;864862;-59
2021/10/21 00:32:21;;;;;;;12.76;7.01;;;;;;;;;;362670;147;866689;-59
2021/10/21 00:33:22;;;;;;;11.84;6.98;;;;;;;;;;363258;144;857195;-58
2021/10/21 00:34:24;;;;;;;13.67;6.93;;;;;;;;;;363578;144;865879;-58
2021/10/21 00:35:26;;;;;;;13.08;7.46;;;;;;;;;;365502;147;867157;-59
2021/10/21 00:36:29;;;;;;;12.81;7.51;;;;;;;;;;365913;144;858954;-58
2021/10/21 00:37:30;;;;;;;12.78;6.86;;;;;;;;;;363636;144;865885;-58
2021/10/21 00:38:32;;;;;;;14.79;7.96;;;;;;;;;;364117;144;858876;-59
2021/10/21 00:39:34;;;;;;;15.45;8.13;;;;;;;;;;362775;147;866754;-58
2021/10/21 00:40:35;;;;;;;12.71;7.27;;;;;;;;;;364503;144;857117;-58
2021/10/21 00:41:37;;;;;;;13.94;6.74;;;;;;;;;;364003;144;857060;-59
2021/10/21 00:42:38;;;;;;;11.94;6.91;;;;;;;;;;365409;146;859107;-58
2021/10/21 00:43:40;;;;;;;10.87;6.08;;;;;;;;;;365032;144;858079;-58
2021/10/21 00:44:42;;;;;;;12.92;7.33;;;;;;;;;;366729;144;857361;-58
2021/10/21 00:45:44;;;;;;;13.39;7.18;;;;;;;;;;366454;146;858358;-59
2021/10/21 00:46:46;;;;;;;12.39;6.68;;;;;;;;;;364723;145;858895;-58
2021/10/21 00:47:47;;;;;;;14.74;6.59;;;;;;;;;;362391;144;856537;-58
2021/10/21 00:48:49;;;;;;;17.96;7.66;;;;;;;;;;366259;144;866361;-59
2021/10/21 00:49:51;;;;;;;12.30;7.34;;;;;;;;;;364927;147;858538;-58
2021/10/21 00:50:52;;;;;;;13.19;8.09;;;;;;;;;;364297;144;863508;-59
2021/10/21 00:51:54;;;;;;;13.04;7.32;;;;;;;;;;363699;144;865028;-58
2021/10/21 00:52:56;;;;;;;10.40;6.46;;;;;;;;;;362569;144;865080;-59
2021/10/21 00:53:58;;;;;;;12.87;6.51;;;;;;;;;;362092;144;857138;-58
2021/10/21 00:54:59;;;;;;;16.26;7.40;;;;;;;;;;364463;144;858287;-58
2021/10/21 00:56:02;;;;;;;11.55;6.42;;;;;;;;;;367733;144;857733;-58
2021/10/21 00:57:04;;;;;;;15.30;7.08;;;;;;;;;;367776;144;859451;-59
2021/10/21 00:58:06;;;;;;;14.83;7.31;;;;;;;;;;363084;144;859787;-58
2021/10/21 00:59:08;;;;;;;16.49;7.99;;;;;;;;;;365621;144;857744;-59
2021/10/21 01:00:11;;;;;;;11.53;7.38;;;;;;;;;;361709;146;865629;-59
2021/10/21 01:01:12;;;;;;;13.25;7.30;;;;;;;;;;363919;145;858859;-58
2021/10/21 01:02:14;;;;;;;14.50;7.12;;;;;;;;;;363425;144;858438;-59
2021/10/21 01:03:16;;;;;;;15.57;7.29;;;;;;;;;;364792;144;857133;-58
2021/10/21 01:04:17;;;;;;;13.56;7.45;;;;;;;;;;361673;144;857034;-59
2021/10/21 01:05:19;;;;;;;15.66;7.46;;;;;;;;;;363338;144;857193;-59
2021/10/21 01:06:20;;;;;;;13.27;6.91;;;;;;;;;;367608;145;857238;-59
2021/10/21 01:07:22;;;;;;;10.83;6.43;;;;;;;;;;361753;144;864989;-58
2021/10/21 01:08:24;;;;;;;9.87;5.52;;;;;;;;;;364696;145;857644;-58
2021/10/21 01:09:25;;;;;;;15.95;6.95;;;;;;;;;;364308;144;857180;-59
2021/10/21 01:10:28;;;;;;;10.65;6.67;;;;;;;;;;365043;146;860161;-59
2021/10/21 01:11:30;;;;;;;18.69;7.30;;;;;;;;;;361032;145;858229;-59
2021/10/21 01:12:32;;;;;;;14.53;7.35;;;;;;;;;;364588;144;858657;-58
2021/10/21 01:13:33;;;;;;;16.20;7.68;;;;;;;;;;364621;146;857811;-59
2021/10/21 01:14:35;;;;;;;12.29;6.52;;;;;;;;;;367381;146;865901;-60
2021/10/21 01:15:36;;;;;;;13.97;6.57;;;;;;;;;;364534;144;858536;-61
2021/10/21 01:16:41;;;;;;;12.52;7.27;;;;;;;;;;368396;144;859822;-60
2021/10/21 01:17:43;;;;;;;12.69;6.71;;;;;;;;;;360417;145;866269;-61
2021/10/21 01:18:44;;;;;;;13.30;7.63;;;;;;;;;;363450;144;859561;-58
2021/10/21 01:19:48;;;;;;;11.14;7.41;;;;;;;;;;363837;144;859192;-59
2021/10/21 01:20:50;;;;;;;14.93;7.07;;;;;;;;;;363078;144;857484;-58
2021/10/21 01:21:52;;;;;;;14.15;7.15;;;;;;;;;;362646;144;857536;-59
2021/10/21 01:22:54;;;;;;;11.39;6.21;;;;;;;;;;361788;144;859048;-58
2021/10/21 01:23:55;;;;;;;13.21;7.07;;;;;;;;;;363528;145;859478;-58
2021/10/21 01:24:57;;;;;;;16.23;7.62;;;;;;;;;;363866;146;857588;-58
2021/10/21 01:25:58;;;;;;;14.50;6.96;;;;;;;;;;362771;144;857268;-58
2021/10/21 01:27:00;;;;;;;12.92;7.76;;;;;;;;;;363189;144;857548;-58
2021/10/21 01:28:02;;;;;;;14.58;6.83;;;;;;;;;;364221;144;864894;-59
2021/10/21 01:29:04;;;;;;;12.99;7.03;;;;;;;;;;363237;145;865975;-59
2021/10/21 01:30:07;;;;;;;13.60;7.65;;;;;;;;;;365908;144;857163;-58
2021/10/21 01:31:08;;;;;;;12.98;7.76;;;;;;;;;;367076;146;857621;-58
2021/10/21 01:32:10;;;;;;;13.05;7.09;;;;;;;;;;365401;145;857632;-58
2021/10/21 01:33:11;;;;;;;16.42;6.85;;;;;;;;;;364905;144;864967;-58
2021/10/21 01:34:13;;;;;;;12.19;7.44;;;;;;;;;;362712;147;866687;-59
2021/10/21 01:35:15;;;;;;;13.69;7.32;;;;;;;;;;356653;147;861161;-58
2021/10/21 01:36:18;;;;;;;12.29;6.70;;;;;;;;;;364005;145;865720;-59
2021/10/21 01:37:19;;;;;;;14.45;6.57;;;;;;;;;;365057;144;858930;-59
2021/10/21 01:38:21;;;;;;;10.49;7.17;;;;;;;;;;363164;144;866157;-59
2021/10/21 01:39:22;;;;;;;11.97;7.01;;;;;;;;;;361893;144;857306;-59
2021/10/21 01:40:26;;;;;;;13.36;7.31;;;;;;;;;;363883;144;857282;-61
2021/10/21 01:41:27;;;;;;;18.69;7.54;;;;;;;;;;362885;145;857200;-60
2021/10/21 01:42:29;;;;;;;13.12;6.30;;;;;;;;;;361897;147;857354;-61
2021/10/21 01:43:31;;;;;;;10.71;6.83;;;;;;;;;;365437;144;864980;-60
2021/10/21 01:44:32;;;;;;;16.85;7.35;;;;;;;;;;363816;145;857274;-59
2021/10/21 01:45:34;;;;;;;11.70;7.05;;;;;;;;;;363825;147;864246;-60
2021/10/21 01:46:35;;;;;;;11.80;6.57;;;;;;;;;;364520;145;859114;-59
2021/10/21 01:47:37;;;;;;;12.34;6.99;;;;;;;;;;354805;146;865112;-60
2021/10/21 01:48:38;;;;;;;10.59;6.39;;;;;;;;;;358935;146;857663;-59
2021/10/21 01:49:40;;;;;;;16.02;7.35;;;;;;;;;;365632;145;859821;-59
2021/10/21 01:50:42;;;;;;;11.52;6.69;;;;;;;;;;363270;145;857585;-60
2021/10/21 01:51:43;;;;;;;16.31;7.18;;;;;;;;;;363380;144;866679;-59
2021/10/21 01:52:45;;;;;;;12.01;6.98;;;;;;;;;;364128;147;858909;-59
2021/10/21 01:53:46;;;;;;;16.03;8.75;;;;;;;;;;362441;145;857758;-59
2021/10/21 01:54:49;;;;;;;13.29;6.76;;;;;;;;;;362215;144;856714;-59
2021/10/21 01:55:50;;;;;;;13.52;7.30;;;;;;;;;;362775;147;859594;-61
2021/10/21 01:56:53;;;;;;;15.09;7.50;;;;;;;;;;363637;144;860258;-60
2021/10/21 01:57:54;;;;;;;10.17;5.65;;;;;;;;;;362601;144;865022;-59
2021/10/21 01:58:56;;;;;;;14.66;7.57;;;;;;;;;;366979;144;856836;-59
2021/10/21 01:59:57;;;;;;;13.04;7.06;;;;;;;;;;365756;144;856008;-59
2021/10/21 02:00:59;;;;;;;14.76;7.32;;;;;;;;;;361805;144;857119;-59
2021/10/21 02:02:01;;;;;;;13.89;7.34;;;;;;;;;;368396;145;856055;-59
2021/10/21 02:03:02;;;;;;;15.92;7.28;;;;;;;;;;366801;144;856052;-59
2021/10/21 02:04:04;;;;;;;11.93;6.71;;;;;;;;;;365785;145;856161;-59
2021/10/21 02:05:06;;;;;;;16.09;6.81;;;;;;;;;;366321;144;856033;-59
2021/10/21 02:06:08;;;;;;;13.23;7.04;;;;;;;;;;363729;146;863709;-59
2021/10/21 02:07:09;;;;;;;13.99;7.22;;;;;;;;;;371288;144;856332;-59
2021/10/21 02:08:11;;;;;;;13.07;7.51;;;;;;;;;;363090;145;864207;-59
2021/10/21 02:09:12;;;;;;;15.11;6.84;;;;;;;;;;363455;144;856752;-59
2021/10/21 02:10:15;;;;;;;11.16;7.01;;;;;;;;;;365144;144;856170;-59
2021/10/21 02:11:17;;;;;;;14.01;7.57;;;;;;;;;;364342;144;856045;-59
2021/10/21 02:12:19;;;;;;;14.72;7.22;;;;;;;;;;366204;144;856048;-59
2021/10/21 02:13:20;;;;;;;15.03;7.31;;;;;;;;;;364077;144;863631;-59
2021/10/21 02:14:22;;;;;;;16.57;6.94;;;;;;;;;;365324;144;863669;-60
2021/10/21 02:17:14;;;;;;;11.09;6.87;;;;;;;10.83;54.19;99528.83;371017;142;881417;-58
2021/10/21 02:18:16;;;;;;;15.11;7.84;;;;;;;10.72;54.21;99532.44;362339;147;858883;-59
2021/10/21 02:19:17;;;;;;;10.24;6.67;;;;;;;10.72;54.25;99526.42;365461;146;857210;-59
2021/10/21 02:20:20;;;;;;;14.19;7.34;;;;;;;10.70;54.40;99523.00;365424;147;864968;-59
2021/10/21 02:21:22;;;;;;;13.75;6.38;;;;;;;10.69;54.33;99522.13;360974;147;857206;-59
2021/10/21 02:22:23;;;;;;;10.08;6.57;;;;;;;10.68;54.39;99520.42;365558;145;858016;-59
2021/10/21 02:23:25;;;;;;;13.13;6.46;;;;;;;10.66;54.38;99525.63;367209;146;865462;-59
2021/10/21 02:24:27;;;;;;;13.77;7.49;;;;;;;10.63;54.45;99525.69;366038;146;865857;-59
2021/10/21 02:25:29;;;;;;;11.34;7.25;;;;;;;10.62;54.54;99523.10;363170;147;857238;-59
2021/10/21 02:26:32;;;;;;;18.07;8.39;;;;;;;10.60;54.57;99530.91;363540;145;866826;-59
2021/10/21 02:27:33;;;;;;;17.52;8.04;;;;;;;10.60;54.63;99528.32;365703;147;857294;-58
2021/10/21 02:28:35;;;;;;;16.85;8.34;;;;;;;10.59;54.64;99530.91;365606;145;865466;-58
2021/10/21 02:29:37;;;;;;;14.59;5.32;;;;;;;10.58;54.64;99522.27;363574;145;864958;-59
2021/10/21 02:30:39;;;;;;;11.68;7.18;;;;;;;10.58;54.60;99527.45;364548;147;864943;-59
2021/10/21 02:31:40;;;;;;;13.97;7.44;;;;;;;10.56;54.77;99521.44;361369;147;857245;-59
2021/10/21 02:32:43;;;;;;;13.10;7.23;;;;;;;10.55;54.73;99524.07;365099;146;865026;-59
2021/10/21 02:33:44;;;;;;;12.44;7.05;;;;;;;10.52;54.89;99522.37;361990;146;864922;-59
2021/10/21 02:34:46;;;;;;;10.66;6.40;;;;;;;10.50;54.89;99524.12;362586;147;857178;-59
2021/10/21 02:35:48;;;;;;;12.65;7.56;;;;;;;10.48;54.92;99521.57;364819;146;864970;-59
2021/10/21 02:36:50;;;;;;;13.23;7.25;;;;;;;10.47;55.01;99524.17;364001;145;865093;-59
2021/10/21 02:37:52;;;;;;;14.46;7.51;;;;;;;10.45;55.02;99525.92;365339;146;857476;-59
2021/10/21 02:38:53;;;;;;;14.03;7.84;;;;;;;10.43;55.09;99522.50;363379;145;865052;-58
2021/10/21 02:39:55;;;;;;;16.36;8.00;;;;;;;10.41;55.23;99524.25;364148;145;865060;-59
2021/10/21 02:40:57;;;;;;;18.87;8.35;;;;;;;10.37;55.29;99524.27;364463;146;865409;-58
2021/10/21 02:41:59;;;;;;;16.49;7.54;;;;;;;10.36;55.31;99517.38;365690;147;858874;-59
2021/10/21 02:43:00;;;;;;;12.04;7.56;;;;;;;10.36;55.45;99521.72;364440;146;865474;-59
2021/10/21 02:44:02;;;;;;;15.18;7.25;;;;;;;10.36;55.39;99522.55;363201;145;865769;-59
2021/10/21 02:45:05;;;;;;;14.59;7.91;;;;;;;10.37;55.42;99516.50;363425;147;866659;-59
2021/10/21 02:46:07;;;;;;;13.11;6.64;;;;;;;10.37;55.41;99510.48;363398;146;857682;-59
2021/10/21 02:47:09;;;;;;;11.17;6.45;;;;;;;10.40;55.37;99512.19;366334;145;858957;-59
2021/10/21 02:48:11;;;;;;;12.68;7.07;;;;;;;10.39;55.43;99506.14;363119;147;858233;-59
2021/10/21 02:49:13;;;;;;;13.04;7.95;;;;;;;10.40;55.44;99509.61;365831;147;866692;-59
2021/10/21 02:50:16;;;;;;;14.59;7.91;;;;;;;10.37;55.45;99508.73;364023;146;858438;-59
2021/10/21 02:51:17;;;;;;;16.54;8.16;;;;;;;10.36;55.55;99507.03;365446;145;866203;-59
2021/10/21 02:52:19;;;;;;;11.57;7.69;;;;;;;10.35;55.57;99501.89;365918;147;866846;-60
2021/10/21 02:53:21;;;;;;;14.11;8.01;;;;;;;10.34;55.63;99502.77;364606;146;866776;-59
2021/10/21 02:54:23;;;;;;;13.93;7.66;;;;;;;10.33;55.67;99507.07;363338;145;866041;-59
2021/10/21 02:55:25;;;;;;;15.60;7.56;;;;;;;10.32;55.67;99505.36;365928;147;865114;-58
2021/10/21 02:56:27;;;;;;;13.03;8.21;;;;;;;10.34;55.69;99501.02;364441;146;857725;-59
2021/10/21 02:57:28;;;;;;;13.43;7.51;;;;;;;10.32;55.83;99500.19;364316;145;858869;-58
2021/10/21 02:58:30;;;;;;;14.81;7.81;;;;;;;10.31;55.71;99501.06;362239;146;867027;-59
2021/10/21 02:59:32;;;;;;;11.39;7.32;;;;;;;10.29;55.76;99492.47;362508;146;865568;-58
2021/10/21 03:00:34;;;;;;;11.78;6.85;;;;;;;10.29;55.79;99501.98;364897;146;867119;-59
2021/10/21 03:01:36;;;;;;;14.62;7.76;;;;;;;10.28;55.81;99500.27;364600;145;858896;-59
2021/10/21 03:02:39;;;;;;;13.17;8.55;;;;;;;10.26;55.87;99499.44;364463;146;865190;-59
2021/10/21 03:03:41;;;;;;;19.89;8.96;;;;;;;10.26;55.87;99499.44;356688;149;866773;-59
2021/10/21 03:04:43;;;;;;;13.53;7.19;;;;;;;10.22;55.93;99506.37;363672;145;857282;-59
2021/10/21 03:05:44;;;;;;;12.35;7.79;;;;;;;10.21;55.95;99502.94;365791;146;865138;-59
2021/10/21 03:06:46;;;;;;;17.19;7.92;;;;;;;10.20;56.06;99506.41;363120;146;865360;-58
2021/10/21 03:07:48;;;;;;;13.52;7.84;;;;;;;10.18;56.06;99505.57;362676;145;856690;-58
2021/10/21 03:08:50;;;;;;;14.74;7.03;;;;;;;10.16;56.09;99504.73;363154;145;865952;-59
2021/10/21 03:09:51;;;;;;;11.14;7.37;;;;;;;10.15;56.10;99507.33;364945;147;865844;-59
2021/10/21 03:10:53;;;;;;;12.79;7.44;;;;;;;10.14;56.21;99506.48;363472;144;857315;-59
2021/10/21 03:11:56;;;;;;;15.92;7.80;;;;;;;10.12;56.23;99504.78;365922;145;865012;-58
2021/10/21 03:12:58;;;;;;;14.00;7.79;;;;;;;10.10;56.22;99497.06;364001;144;865498;-59
2021/10/21 03:14:00;;;;;;;13.99;7.86;;;;;;;10.08;56.31;99491.89;362114;147;858972;-60
2021/10/21 03:15:02;;;;;;;15.15;7.61;;;;;;;10.06;56.39;99498.81;364441;146;859978;-59
2021/10/21 03:16:04;;;;;;;14.25;7.51;;;;;;;10.06;56.39;99498.81;363314;147;867190;-57
2021/10/21 03:17:07;;;;;;;18.23;7.79;;;;;;;10.02;56.48;99491.97;362435;146;857250;-57
2021/10/21 03:18:09;;;;;;;17.99;7.85;;;;;;;10.02;56.56;99485.92;359124;147;858855;-57
2021/10/21 03:19:11;;;;;;;13.26;7.25;;;;;;;10.00;56.59;99491.14;361789;147;867264;-57
2021/10/21 03:20:13;;;;;;;12.93;7.05;;;;;;;10.00;56.60;99490.27;365064;147;866432;-58
2021/10/21 03:21:14;;;;;;;15.76;7.84;;;;;;;9.98;56.65;99492.02;359797;147;857365;-58
2021/10/21 03:22:16;;;;;;;13.04;7.35;;;;;;;9.99;56.66;99491.14;358531;147;866487;-58
2021/10/21 03:23:23;;;;;;;13.22;7.51;;;;;;;9.98;56.74;99487.71;362062;147;864905;-59
2021/10/21 03:24:22;;;;;;;11.84;7.17;;;;;;;9.97;56.74;99486.00;357717;146;857225;-59
2021/10/21 03:25:24;;;;;;;14.92;8.30;;;;;;;9.95;56.83;99479.99;359863;147;866091;-59
2021/10/21 03:26:26;;;;;;;17.21;8.17;;;;;;;9.94;56.80;99457.59;362888;147;857081;-60
2021/10/21 03:27:28;;;;;;;15.83;8.26;;;;;;;9.94;56.88;99480.87;362669;148;857656;-59
2021/10/21 03:28:30;;;;;;;12.05;6.98;;;;;;;9.92;56.96;99480.88;361399;145;859178;-59
2021/10/21 03:29:31;;;;;;;12.97;6.91;;;;;;;9.91;57.02;99481.75;362049;146;865954;-58
2021/10/21 03:30:33;;;;;;;16.08;8.65;;;;;;;9.89;57.05;99478.33;362540;146;858917;-57
2021/10/21 03:31:35;;;;;;;13.30;8.10;;;;;;;9.87;57.16;99474.91;361548;147;857717;-59
2021/10/21 03:32:37;;;;;;;18.77;9.09;;;;;;;9.85;57.32;99465.47;358983;147;865045;-58
2021/10/21 03:33:39;;;;;;;16.05;8.37;;;;;;;9.84;57.25;99466.34;361653;147;865791;-58
2021/10/21 03:34:41;;;;;;;14.99;6.50;;;;;;;9.83;57.41;99468.06;357273;147;858700;-56
2021/10/21 03:35:43;;;;;;;13.55;6.83;;;;;;;9.82;57.39;99468.09;359806;146;857930;-57
2021/10/21 03:36:45;;;;;;;14.09;7.65;;;;;;;9.80;57.32;99460.34;361378;147;865089;-57
2021/10/21 03:37:47;;;;;;;14.97;8.24;;;;;;;9.80;57.42;99460.34;359295;147;859868;-56
2021/10/21 03:38:48;;;;;;;12.97;7.29;;;;;;;;;;361470;147;865631;-57
2021/10/21 03:39:50;;;;;;;14.98;7.73;;;;;;;;;;358661;147;865308;-57
2021/10/21 03:40:53;;;;;;;16.89;8.01;;;;;;;;;;359114;147;865528;-57
2021/10/21 03:41:54;;;;;;;18.97;8.76;;;;;;;;;;360921;147;857523;-57
2021/10/21 03:42:56;;;;;;;17.44;8.64;;;;;;;;;;359851;147;865017;-58
2021/10/21 03:43:57;;;;;;;13.04;7.37;;;;;;;;;;358941;147;857361;-57
2021/10/21 03:44:59;;;;;;;16.78;8.68;;;;;;;;;;358189;147;864991;-58
2021/10/21 03:46:00;;;;;;;13.94;9.45;;;;;;;;;;361003;147;857640;-61
2021/10/21 03:47:02;;;;;;;15.79;8.57;;;;;;;;;;363332;147;859244;-58
2021/10/21 03:48:04;;;;;;;12.11;6.93;;;;;;;;;;361806;148;864866;-57
2021/10/21 03:49:06;;;;;;;13.24;7.10;;;;;;;;;;358745;147;865865;-57
2021/10/21 03:50:08;;;;;;;18.70;9.54;;;;;;;;;;360908;147;866540;-58
2021/10/21 03:51:10;;;;;;;15.36;9.35;;;;;;;;;;359884;146;858245;-58
2021/10/21 03:52:11;;;;;;;15.23;9.31;;;;;;;;;;360591;146;857804;-58
2021/10/21 03:53:13;;;;;;;15.04;9.33;;;;;;;;;;360935;147;857474;-57
2021/10/21 03:54:14;;;;;;;13.65;7.73;;;;;;;;;;361040;147;864929;-58
2021/10/21 03:55:16;;;;;;;16.63;9.31;;;;;;;;;;358171;147;857172;-58
2021/10/21 03:56:19;;;;;;;13.04;7.81;;;;;;;;;;359131;147;857177;-57
2021/10/21 03:57:21;;;;;;;15.14;8.93;;;;;;;;;;359716;147;860302;-59
2021/10/21 03:58:23;;;;;;;18.26;8.54;;;;;;;;;;361501;148;864859;-57
2021/10/21 03:59:24;;;;;;;14.65;8.50;;;;;;;;;;360382;148;857136;-57
2021/10/21 04:00:26;;;;;;;15.75;9.03;;;;;;;;;;360670;147;865043;-56
2021/10/21 04:01:28;;;;;;;14.86;9.05;;;;;;;;;;359787;148;859882;-58
2021/10/21 04:02:30;;;;;;;15.41;9.31;;;;;;;;;;359110;148;860222;-58
2021/10/21 04:03:31;;;;;;;16.94;9.63;;;;;;;;;;360237;145;857262;-58
2021/10/21 04:04:33;;;;;;;17.01;8.95;;;;;;;;;;359556;147;865016;-57
2021/10/21 04:05:35;;;;;;;23.88;9.34;;;;;;;;;;361146;147;857291;-58
2021/10/21 04:06:36;;;;;;;13.49;8.57;;;;;;;;;;358861;147;857497;-59
2021/10/21 04:07:38;;;;;;;14.76;9.54;;;;;;;;;;360124;147;857728;-59
2021/10/21 04:08:39;;;;;;;17.84;9.68;;;;;;;;;;359582;147;857319;-59
2021/10/21 04:09:41;;;;;;;16.39;9.73;;;;;;;;;;356124;148;866779;-58
2021/10/21 04:10:43;;;;;;;15.62;8.91;;;;;;;;;;359901;147;859544;-60
2021/10/21 04:11:44;;;;;;;18.06;9.42;;;;;;;;;;361164;147;864995;-60
2021/10/21 04:12:46;;;;;;;21.83;10.35;;;;;;;;;;360827;146;866695;-60
2021/10/21 04:13:48;;;;;;;21.11;10.79;;;;;;;;;;360883;147;857120;-60
2021/10/21 04:14:49;;;;;;;21.87;11.68;;;;;;;;;;359995;147;857556;-60
2021/10/21 04:15:51;;;;;;;17.62;7.26;;;;;;;;;;357506;148;864862;-60
2021/10/21 04:16:53;;;;;;;19.21;10.96;;;;;;;;;;358422;148;857450;-60
2021/10/21 04:17:55;;;;;;;22.37;10.51;;;;;;;;;;360135;147;857773;-59
2021/10/21 04:18:56;;;;;;;17.45;10.36;;;;;;;;;;362531;147;866107;-59
2021/10/21 04:19:58;;;;;;;17.68;9.94;;;;;;;;;;360564;148;864915;-58
2021/10/21 04:20:59;;;;;;;15.89;10.15;;;;;;;;;;363526;147;857717;-58
2021/10/21 04:22:02;;;;;;;15.64;8.93;;;;;;;;;;360312;145;864903;-60
2021/10/21 04:23:03;;;;;;;13.75;8.69;;;;;;;;;;363537;148;866601;-61
2021/10/21 04:24:05;;;;;;;17.20;9.90;;;;;;;;;;362609;147;857385;-60
2021/10/21 04:25:07;;;;;;;18.37;9.96;;;;;;;;;;362928;147;865480;-63
2021/10/21 04:26:09;;;;;;;13.61;7.92;;;;;;;;;;358942;148;865019;-60
2021/10/21 04:27:10;;;;;;;18.18;9.94;;;;;;;;;;362789;148;859547;-61
2021/10/21 04:28:12;;;;;;;17.19;9.91;;;;;;;;;;360739;147;865052;-61
2021/10/21 04:29:13;;;;;;;19.38;9.76;;;;;;;;;;363861;147;857635;-58
2021/10/21 04:30:15;;;;;;;19.91;7.31;;;;;;;;;;362422;147;857152;-58
2021/10/21 04:31:17;;;;;;;17.19;10.36;;;;;;;;;;362711;145;857224;-60
2021/10/21 04:32:18;;;;;;;19.63;9.36;;;;;;;;;;361962;145;864960;-60
2021/10/21 04:33:20;;;;;;;12.79;7.96;;;;;;;;;;361854;148;861522;-61
2021/10/21 04:34:22;;;;;;;17.56;10.74;;;;;;;;;;360156;148;858658;-58
2021/10/21 04:35:23;;;;;;;16.11;9.16;;;;;;;;;;361652;145;859729;-59
2021/10/21 04:36:25;;;;;;;17.59;9.44;;;;;;;;;;362836;147;860412;-58
2021/10/21 04:37:27;;;;;;;17.40;9.44;;;;;;;;;;362051;148;864917;-60
2021/10/21 04:38:29;;;;;;;16.02;10.12;;;;;;;;;;363441;147;859008;-61
2021/10/21 04:39:30;;;;;;;18.85;11.18;;;;;;;;;;358674;145;859501;-58
2021/10/21 04:40:32;;;;;;;12.30;7.99;;;;;;;;;;362096;148;859200;-59
2021/10/21 04:41:34;;;;;;;17.56;9.47;;;;;;;;;;362531;148;857286;-60
2021/10/21 04:42:36;;;;;;;20.28;8.77;;;;;;;;;;361355;147;865039;-58
2021/10/21 04:43:38;;;;;;;17.79;10.01;;;;;;;;;;357033;148;864929;-59
2021/10/21 04:44:42;;;;;;;13.85;8.44;;;;;;;;;;357189;146;857532;-59
2021/10/21 04:45:43;;;;;;;19.26;10.69;;;;;;;;;;361196;147;859721;-59
2021/10/21 04:46:44;;;;;;;16.59;9.74;;;;;;;;;;360758;147;859342;-59
2021/10/21 04:47:46;;;;;;;18.82;10.41;;;;;;;;;;362767;147;862421;-59
2021/10/21 04:48:48;;;;;;;14.57;8.79;;;;;;;;;;360388;145;860569;-60
2021/10/21 04:49:49;;;;;;;16.44;9.64;;;;;;;;;;361720;145;865914;-59
2021/10/21 04:50:51;;;;;;;20.17;10.22;;;;;;;;;;365012;147;858169;-60
2021/10/21 04:51:52;;;;;;;16.41;8.99;;;;;;;;;;364632;147;865972;-60
2021/10/21 04:52:54;;;;;;;13.35;8.16;;;;;;;;;;360349;147;865979;-59
2021/10/21 04:53:56;;;;;;;17.13;9.25;;;;;;;;;;360949;147;867134;-59
2021/10/21 04:54:57;;;;;;;14.41;9.79;;;;;;;;;;361360;147;864854;-59
2021/10/21 04:55:59;;;;;;;16.16;9.66;;;;;;;;;;361344;147;866780;-61
2021/10/21 04:57:01;;;;;;;16.88;11.09;;;;;;;;;;361090;147;857149;-59
2021/10/21 04:58:03;;;;;;;17.41;10.34;;;;;;;;;;363323;148;858738;-60
2021/10/21 04:59:05;;;;;;;23.20;11.13;;;;;;;;;;361251;147;859292;-59
2021/10/21 05:00:08;;;;;;;12.88;8.81;;;;;;;;;;361999;145;858459;-58
2021/10/21 05:01:09;;;;;;;20.68;11.25;;;;;;;;;;346849;152;857658;-59
2021/10/21 05:02:11;;;;;;;18.34;10.67;;;;;;;;;;353368;150;856475;-58
2021/10/21 05:03:13;;;;;;;14.01;8.09;;;;;;;;;;353731;150;856171;-59
2021/10/21 05:04:14;;;;;;;18.95;10.34;;;;;;;;;;354084;150;863817;-59
2021/10/21 05:05:16;;;;;;;15.01;8.96;;;;;;;;;;347514;152;863717;-58
2021/10/21 05:06:17;;;;;;;19.61;10.31;;;;;;;;;;354294;150;856357;-59
2021/10/21 05:07:19;;;;;;;16.99;10.98;;;;;;;;;;355383;148;856511;-59
2021/10/21 05:08:21;;;;;;;14.07;7.53;;;;;;;;;;354161;150;856952;-59
2021/10/21 05:09:22;;;;;;;15.99;10.22;;;;;;;;;;356734;148;856382;-59
2021/10/21 05:10:24;;;;;;;13.64;8.71;;;;;;;;;;349820;151;861529;-59
2021/10/21 05:11:26;;;;;;;17.17;10.11;;;;;;;;;;349246;151;863861;-59
2021/10/21 05:12:27;;;;;;;18.12;10.34;;;;;;;;;;350033;153;863844;-58
2021/10/21 05:13:29;;;;;;;19.55;11.24;;;;;;;;;;350166;151;856706;-58
2021/10/21 05:14:30;;;;;;;15.42;9.43;;;;;;;;;;347959;152;863832;-59
2021/10/21 05:15:32;;;;;;;17.99;9.34;;;;;;;;;;351852;151;856487;-59
2021/10/21 05:16:35;;;;;;;17.88;10.36;;;;;;;;;;351686;148;864011;-58
2021/10/21 05:17:36;;;;;;;15.16;8.98;;;;;;;;;;354953;150;856700;-60
2021/10/21 05:18:38;;;;;;;15.52;8.74;;;;;;;;;;350318;151;863887;-60
2021/10/21 05:19:40;;;;;;;16.94;10.36;;;;;;;;;;348977;151;859751;-60
2021/10/21 05:20:41;;;;;;;16.84;8.99;;;;;;;;;;352417;149;863740;-59
2021/10/21 05:21:43;;;;;;;18.22;10.48;;;;;;;;;;344129;154;864323;-60
2021/10/21 05:22:44;;;;;;;17.62;8.74;;;;;;;;;;349699;152;863898;-59
2021/10/21 05:23:46;;;;;;;20.60;11.54;;;;;;;;;;344769;153;858355;-61
2021/10/21 05:24:48;;;;;;;18.55;10.03;;;;;;;;;;352533;149;856204;-60
2021/10/21 05:25:49;;;;;;;18.33;11.13;;;;;;;;;;353707;152;864113;-59
2021/10/21 05:26:51;;;;;;;19.43;9.16;;;;;;;;;;353543;150;856615;-58
2021/10/21 05:27:52;;;;;;;15.47;9.60;;;;;;;;;;351745;149;864219;-58
2021/10/21 05:28:54;;;;;;;17.67;11.49;;;;;;;;;;350743;150;859910;-59
2021/10/21 05:29:56;;;;;;;15.90;10.76;;;;;;;;;;351213;151;857287;-58
2021/10/21 05:30:57;;;;;;;16.55;9.29;;;;;;;;;;352823;149;858974;-59
2021/10/21 05:32:00;;;;;;;15.57;9.34;;;;;;;;;;351827;149;864981;-59
2021/10/21 05:33:02;;;;;;;13.93;9.73;;;;;;;;;;349123;152;857176;-58
2021/10/21 05:34:03;;;;;;;18.43;12.20;;;;;;;;;;348569;152;865032;-58
2021/10/21 05:35:05;;;;;;;15.16;9.46;;;;;;;;;;352000;149;857393;-58
2021/10/21 05:36:07;;;;;;;18.97;10.75;;;;;;;;;;348270;152;859096;-58
2021/10/21 05:37:09;;;;;;;19.29;10.35;;;;;;;;;;353591;150;856615;-58
2021/10/21 05:38:10;;;;;;;16.71;11.33;;;;;;;;;;352098;149;863309;-58
2021/10/21 05:39:12;;;;;;;15.36;9.96;;;;;;;;;;351954;149;856073;-58